sensor_id;sensor_type;location;lat;lon;timestamp;P1;durP1;ratioP1;P2;durP2;ratioP2
72335;SDS011;65062;48.446;8.834;2023-02-13T00:02:19;19.80;;;7.90;;
72335;SDS011;65062;48.446;8.834;2023-02-13T00:05:19;15.43;;;7.40;;
72335;SDS011;65062;48.446;8.834;2023-02-13T00:08:19;14.95;;;7.10;;
72335;SDS011;65062;48.446;8.834;2023-02-13T00:11:20;13.65;;;7.15;;
72335;SDS011;65062;48.446;8.834;2023-02-13T00:14:20;13.18;;;6.75;;
72335;SDS011;65062;48.446;8.834;2023-02-13T00:17:21;15.07;;;6.90;;
72335;SDS011;65062;48.446;8.834;2023-02-13T00:20:21;15.07;;;6.85;;
72335;SDS011;65062;48.446;8.834;2023-02-13T00:23:22;14.18;;;5.90;;
72335;SDS011;65062;48.446;8.834;2023-02-13T00:26:22;14.77;;;7.10;;
72335;SDS011;65062;48.446;8.834;2023-02-13T00:29:22;17.63;;;8.13;;
72335;SDS011;65062;48.446;8.834;2023-02-13T00:32:23;15.32;;;7.00;;
72335;SDS011;65062;48.446;8.834;2023-02-13T00:35:23;16.83;;;7.85;;
72335;SDS011;65062;48.446;8.834;2023-02-13T00:38:23;18.17;;;7.30;;
72335;SDS011;65062;48.446;8.834;2023-02-13T00:41:24;14.70;;;6.93;;
72335;SDS011;65062;48.446;8.834;2023-02-13T00:44:24;13.52;;;6.43;;
72335;SDS011;65062;48.446;8.834;2023-02-13T00:47:24;13.32;;;6.53;;
72335;SDS011;65062;48.446;8.834;2023-02-13T00:50:25;14.77;;;6.50;;
72335;SDS011;65062;48.446;8.834;2023-02-13T00:53:25;16.33;;;7.53;;
72335;SDS011;65062;48.446;8.834;2023-02-13T00:56:27;14.93;;;7.13;;
72335;SDS011;65062;48.446;8.834;2023-02-13T00:59:27;13.85;;;6.70;;
72335;SDS011;65062;48.446;8.834;2023-02-13T01:02:27;15.55;;;6.97;;
72335;SDS011;65062;48.446;8.834;2023-02-13T01:05:28;13.68;;;7.57;;
72335;SDS011;65062;48.446;8.834;2023-02-13T01:08:28;16.15;;;7.50;;
72335;SDS011;65062;48.446;8.834;2023-02-13T01:11:29;16.60;;;6.85;;
72335;SDS011;65062;48.446;8.834;2023-02-13T01:14:29;19.77;;;7.18;;
72335;SDS011;65062;48.446;8.834;2023-02-13T01:17:30;13.95;;;6.68;;
72335;SDS011;65062;48.446;8.834;2023-02-13T01:20:30;11.65;;;6.22;;
72335;SDS011;65062;48.446;8.834;2023-02-13T01:23:31;13.50;;;6.70;;
72335;SDS011;65062;48.446;8.834;2023-02-13T01:26:33;14.60;;;7.63;;
72335;SDS011;65062;48.446;8.834;2023-02-13T01:29:34;19.90;;;7.22;;
72335;SDS011;65062;48.446;8.834;2023-02-13T01:32:35;12.73;;;7.22;;
72335;SDS011;65062;48.446;8.834;2023-02-13T01:35:37;14.85;;;7.43;;
72335;SDS011;65062;48.446;8.834;2023-02-13T01:38:38;13.13;;;6.97;;
72335;SDS011;65062;48.446;8.834;2023-02-13T01:41:39;11.93;;;6.93;;
72335;SDS011;65062;48.446;8.834;2023-02-13T01:44:44;15.13;;;7.30;;
72335;SDS011;65062;48.446;8.834;2023-02-13T01:47:46;15.57;;;7.07;;
72335;SDS011;65062;48.446;8.834;2023-02-13T01:54:08;12.82;;;6.72;;
72335;SDS011;65062;48.446;8.834;2023-02-13T01:57:14;17.98;;;7.75;;
72335;SDS011;65062;48.446;8.834;2023-02-13T02:00:19;17.45;;;7.22;;
72335;SDS011;65062;48.446;8.834;2023-02-13T02:03:24;15.18;;;7.57;;
72335;SDS011;65062;48.446;8.834;2023-02-13T02:06:30;15.55;;;7.05;;
72335;SDS011;65062;48.446;8.834;2023-02-13T02:09:36;11.80;;;6.78;;
72335;SDS011;65062;48.446;8.834;2023-02-13T02:15:49;15.10;;;6.22;;
72335;SDS011;65062;48.446;8.834;2023-02-13T02:18:49;12.20;;;6.28;;
72335;SDS011;65062;48.446;8.834;2023-02-13T02:25:41;11.25;;;6.28;;
72335;SDS011;65062;48.446;8.834;2023-02-13T02:39:04;14.93;;;7.03;;
72335;SDS011;65062;48.446;8.834;2023-02-13T02:48:55;11.70;;;6.68;;
72335;SDS011;65062;48.446;8.834;2023-02-13T02:52:20;15.00;;;8.00;;
72335;SDS011;65062;48.446;8.834;2023-02-13T02:55:49;14.85;;;6.78;;
72335;SDS011;65062;48.446;8.834;2023-02-13T02:59:02;13.20;;;7.05;;
72335;SDS011;65062;48.446;8.834;2023-02-13T03:02:24;15.32;;;7.30;;
72335;SDS011;65062;48.446;8.834;2023-02-13T03:05:47;14.68;;;6.82;;
72335;SDS011;65062;48.446;8.834;2023-02-13T03:09:10;12.98;;;6.78;;
72335;SDS011;65062;48.446;8.834;2023-02-13T03:12:35;13.77;;;6.78;;
72335;SDS011;65062;48.446;8.834;2023-02-13T03:15:58;11.88;;;6.40;;
72335;SDS011;65062;48.446;8.834;2023-02-13T03:23:22;10.18;;;5.90;;
72335;SDS011;65062;48.446;8.834;2023-02-13T03:29:54;13.35;;;6.43;;
72335;SDS011;65062;48.446;8.834;2023-02-13T03:43:14;13.98;;;6.85;;
72335;SDS011;65062;48.446;8.834;2023-02-13T03:46:17;16.02;;;6.78;;
72335;SDS011;65062;48.446;8.834;2023-02-13T03:52:46;14.65;;;6.10;;
72335;SDS011;65062;48.446;8.834;2023-02-13T03:55:48;16.20;;;8.38;;
72335;SDS011;65062;48.446;8.834;2023-02-13T03:59:09;10.15;;;5.60;;
72335;SDS011;65062;48.446;8.834;2023-02-13T04:02:21;23.50;;;11.15;;
72335;SDS011;65062;48.446;8.834;2023-02-13T04:05:28;31.65;;;22.20;;
72335;SDS011;65062;48.446;8.834;2023-02-13T04:08:31;18.50;;;9.48;;
72335;SDS011;65062;48.446;8.834;2023-02-13T04:11:33;16.95;;;7.45;;
72335;SDS011;65062;48.446;8.834;2023-02-13T04:14:39;11.13;;;6.93;;
72335;SDS011;65062;48.446;8.834;2023-02-13T04:17:48;17.92;;;6.55;;
72335;SDS011;65062;48.446;8.834;2023-02-13T04:20:53;11.32;;;5.82;;
72335;SDS011;65062;48.446;8.834;2023-02-13T04:23:53;22.85;;;6.95;;
72335;SDS011;65062;48.446;8.834;2023-02-13T04:26:54;12.13;;;5.95;;
72335;SDS011;65062;48.446;8.834;2023-02-13T04:29:55;13.90;;;7.65;;
72335;SDS011;65062;48.446;8.834;2023-02-13T04:32:55;20.45;;;8.20;;
72335;SDS011;65062;48.446;8.834;2023-02-13T04:35:55;12.30;;;7.22;;
72335;SDS011;65062;48.446;8.834;2023-02-13T04:38:56;17.92;;;6.93;;
72335;SDS011;65062;48.446;8.834;2023-02-13T04:41:56;9.98;;;5.22;;
72335;SDS011;65062;48.446;8.834;2023-02-13T04:44:57;12.73;;;6.20;;
72335;SDS011;65062;48.446;8.834;2023-02-13T04:47:57;16.50;;;6.53;;
72335;SDS011;65062;48.446;8.834;2023-02-13T04:50:58;12.30;;;6.22;;
72335;SDS011;65062;48.446;8.834;2023-02-13T04:53:58;15.63;;;7.13;;
72335;SDS011;65062;48.446;8.834;2023-02-13T04:56:59;15.85;;;7.45;;
72335;SDS011;65062;48.446;8.834;2023-02-13T05:00:00;16.00;;;7.63;;
72335;SDS011;65062;48.446;8.834;2023-02-13T05:03:08;12.98;;;6.88;;
72335;SDS011;65062;48.446;8.834;2023-02-13T05:06:12;13.75;;;7.05;;
72335;SDS011;65062;48.446;8.834;2023-02-13T05:09:12;13.05;;;6.55;;
72335;SDS011;65062;48.446;8.834;2023-02-13T05:12:13;15.65;;;7.20;;
72335;SDS011;65062;48.446;8.834;2023-02-13T05:15:13;12.55;;;6.25;;
72335;SDS011;65062;48.446;8.834;2023-02-13T05:18:13;15.82;;;7.22;;
72335;SDS011;65062;48.446;8.834;2023-02-13T05:21:14;11.02;;;6.18;;
72335;SDS011;65062;48.446;8.834;2023-02-13T05:24:33;11.32;;;6.30;;
72335;SDS011;65062;48.446;8.834;2023-02-13T05:27:33;13.52;;;6.60;;
72335;SDS011;65062;48.446;8.834;2023-02-13T05:30:34;17.42;;;6.07;;
72335;SDS011;65062;48.446;8.834;2023-02-13T05:33:35;21.13;;;7.60;;
72335;SDS011;65062;48.446;8.834;2023-02-13T05:36:35;17.27;;;6.80;;
72335;SDS011;65062;48.446;8.834;2023-02-13T05:39:36;15.25;;;7.40;;
72335;SDS011;65062;48.446;8.834;2023-02-13T05:42:36;12.77;;;7.22;;
72335;SDS011;65062;48.446;8.834;2023-02-13T05:45:36;13.90;;;6.50;;
72335;SDS011;65062;48.446;8.834;2023-02-13T05:48:37;15.07;;;6.75;;
72335;SDS011;65062;48.446;8.834;2023-02-13T05:51:37;11.95;;;6.50;;
72335;SDS011;65062;48.446;8.834;2023-02-13T05:54:37;18.52;;;6.53;;
72335;SDS011;65062;48.446;8.834;2023-02-13T05:57:38;13.85;;;6.38;;
72335;SDS011;65062;48.446;8.834;2023-02-13T06:00:38;12.15;;;6.45;;
72335;SDS011;65062;48.446;8.834;2023-02-13T06:03:39;19.52;;;6.88;;
72335;SDS011;65062;48.446;8.834;2023-02-13T06:06:39;14.98;;;6.28;;
72335;SDS011;65062;48.446;8.834;2023-02-13T06:09:39;15.57;;;7.05;;
72335;SDS011;65062;48.446;8.834;2023-02-13T06:12:41;18.30;;;6.80;;
72335;SDS011;65062;48.446;8.834;2023-02-13T06:15:42;16.40;;;6.78;;
72335;SDS011;65062;48.446;8.834;2023-02-13T06:18:42;17.58;;;8.63;;
72335;SDS011;65062;48.446;8.834;2023-02-13T06:21:43;14.30;;;6.50;;
72335;SDS011;65062;48.446;8.834;2023-02-13T06:24:43;9.93;;;5.53;;
72335;SDS011;65062;48.446;8.834;2023-02-13T06:27:43;12.02;;;6.15;;
72335;SDS011;65062;48.446;8.834;2023-02-13T06:30:44;14.75;;;6.03;;
72335;SDS011;65062;48.446;8.834;2023-02-13T06:33:44;16.63;;;6.75;;
72335;SDS011;65062;48.446;8.834;2023-02-13T06:36:45;10.85;;;4.72;;
72335;SDS011;65062;48.446;8.834;2023-02-13T06:39:45;13.38;;;5.88;;
72335;SDS011;65062;48.446;8.834;2023-02-13T06:42:45;15.05;;;6.95;;
72335;SDS011;65062;48.446;8.834;2023-02-13T06:45:46;15.23;;;7.32;;
72335;SDS011;65062;48.446;8.834;2023-02-13T06:48:46;11.70;;;6.13;;
72335;SDS011;65062;48.446;8.834;2023-02-13T06:51:46;14.27;;;7.22;;
72335;SDS011;65062;48.446;8.834;2023-02-13T06:54:47;15.30;;;7.05;;
72335;SDS011;65062;48.446;8.834;2023-02-13T06:57:47;13.73;;;6.38;;
72335;SDS011;65062;48.446;8.834;2023-02-13T07:00:49;11.48;;;6.68;;
72335;SDS011;65062;48.446;8.834;2023-02-13T07:03:49;17.45;;;7.10;;
72335;SDS011;65062;48.446;8.834;2023-02-13T07:06:50;13.27;;;6.97;;
72335;SDS011;65062;48.446;8.834;2023-02-13T07:09:54;15.40;;;6.57;;
72335;SDS011;65062;48.446;8.834;2023-02-13T07:12:54;12.75;;;7.13;;
72335;SDS011;65062;48.446;8.834;2023-02-13T07:15:54;14.18;;;5.57;;
72335;SDS011;65062;48.446;8.834;2023-02-13T07:18:59;10.50;;;6.15;;
72335;SDS011;65062;48.446;8.834;2023-02-13T07:22:00;17.02;;;7.53;;
72335;SDS011;65062;48.446;8.834;2023-02-13T07:25:00;14.27;;;6.65;;
72335;SDS011;65062;48.446;8.834;2023-02-13T07:28:04;17.30;;;7.22;;
72335;SDS011;65062;48.446;8.834;2023-02-13T07:31:06;16.88;;;8.23;;
72335;SDS011;65062;48.446;8.834;2023-02-13T07:34:06;18.25;;;8.32;;
72335;SDS011;65062;48.446;8.834;2023-02-13T07:37:07;14.15;;;7.47;;
72335;SDS011;65062;48.446;8.834;2023-02-13T07:40:07;17.58;;;8.27;;
72335;SDS011;65062;48.446;8.834;2023-02-13T07:43:08;16.02;;;8.07;;
72335;SDS011;65062;48.446;8.834;2023-02-13T07:46:09;18.10;;;8.60;;
72335;SDS011;65062;48.446;8.834;2023-02-13T07:49:09;20.40;;;8.88;;
72335;SDS011;65062;48.446;8.834;2023-02-13T07:52:10;20.88;;;9.35;;
72335;SDS011;65062;48.446;8.834;2023-02-13T07:55:10;14.60;;;7.38;;
72335;SDS011;65062;48.446;8.834;2023-02-13T07:58:10;22.50;;;8.75;;
72335;SDS011;65062;48.446;8.834;2023-02-13T08:01:12;20.13;;;7.93;;
72335;SDS011;65062;48.446;8.834;2023-02-13T08:04:13;16.98;;;8.45;;
72335;SDS011;65062;48.446;8.834;2023-02-13T08:07:14;21.23;;;8.88;;
72335;SDS011;65062;48.446;8.834;2023-02-13T08:10:16;20.67;;;9.55;;
72335;SDS011;65062;48.446;8.834;2023-02-13T08:13:35;19.73;;;9.20;;
72335;SDS011;65062;48.446;8.834;2023-02-13T08:16:36;20.45;;;9.57;;
72335;SDS011;65062;48.446;8.834;2023-02-13T08:19:36;17.13;;;8.77;;
72335;SDS011;65062;48.446;8.834;2023-02-13T08:22:37;18.60;;;9.52;;
72335;SDS011;65062;48.446;8.834;2023-02-13T08:25:38;18.20;;;8.95;;
72335;SDS011;65062;48.446;8.834;2023-02-13T08:28:39;18.85;;;9.23;;
72335;SDS011;65062;48.446;8.834;2023-02-13T08:31:39;20.05;;;9.15;;
72335;SDS011;65062;48.446;8.834;2023-02-13T08:34:40;16.80;;;8.77;;
72335;SDS011;65062;48.446;8.834;2023-02-13T08:37:40;16.88;;;8.25;;
72335;SDS011;65062;48.446;8.834;2023-02-13T08:40:41;17.25;;;8.20;;
72335;SDS011;65062;48.446;8.834;2023-02-13T08:43:41;17.80;;;8.43;;
72335;SDS011;65062;48.446;8.834;2023-02-13T08:46:41;28.05;;;12.38;;
72335;SDS011;65062;48.446;8.834;2023-02-13T08:49:42;19.40;;;9.68;;
72335;SDS011;65062;48.446;8.834;2023-02-13T08:52:42;18.60;;;7.72;;
72335;SDS011;65062;48.446;8.834;2023-02-13T08:55:48;24.27;;;11.02;;
72335;SDS011;65062;48.446;8.834;2023-02-13T08:58:51;39.72;;;15.70;;
72335;SDS011;65062;48.446;8.834;2023-02-13T09:01:51;16.73;;;8.32;;
72335;SDS011;65062;48.446;8.834;2023-02-13T09:04:52;16.98;;;7.93;;
72335;SDS011;65062;48.446;8.834;2023-02-13T09:07:52;16.45;;;7.45;;
72335;SDS011;65062;48.446;8.834;2023-02-13T09:10:57;16.38;;;7.88;;
72335;SDS011;65062;48.446;8.834;2023-02-13T09:13:59;14.38;;;7.18;;
72335;SDS011;65062;48.446;8.834;2023-02-13T09:16:59;14.90;;;7.20;;
72335;SDS011;65062;48.446;8.834;2023-02-13T09:20:00;15.23;;;8.63;;
72335;SDS011;65062;48.446;8.834;2023-02-13T09:23:00;16.60;;;7.65;;
72335;SDS011;65062;48.446;8.834;2023-02-13T09:26:01;17.80;;;7.95;;
72335;SDS011;65062;48.446;8.834;2023-02-13T09:29:03;18.55;;;8.27;;
72335;SDS011;65062;48.446;8.834;2023-02-13T09:32:04;18.15;;;10.15;;
72335;SDS011;65062;48.446;8.834;2023-02-13T09:35:05;17.65;;;8.63;;
72335;SDS011;65062;48.446;8.834;2023-02-13T09:38:06;15.80;;;7.93;;
72335;SDS011;65062;48.446;8.834;2023-02-13T09:41:18;14.85;;;8.05;;
72335;SDS011;65062;48.446;8.834;2023-02-13T09:47:42;14.10;;;7.07;;
72335;SDS011;65062;48.446;8.834;2023-02-13T09:53:54;17.17;;;8.23;;
72335;SDS011;65062;48.446;8.834;2023-02-13T09:56:58;14.75;;;8.13;;
72335;SDS011;65062;48.446;8.834;2023-02-13T10:03:16;15.43;;;8.77;;
72335;SDS011;65062;48.446;8.834;2023-02-13T10:06:38;14.88;;;7.97;;
72335;SDS011;65062;48.446;8.834;2023-02-13T10:13:02;16.23;;;8.25;;
72335;SDS011;65062;48.446;8.834;2023-02-13T10:22:55;15.68;;;7.82;;
72335;SDS011;65062;48.446;8.834;2023-02-13T10:26:04;12.77;;;5.45;;
72335;SDS011;65062;48.446;8.834;2023-02-13T10:29:13;13.40;;;5.55;;
72335;SDS011;65062;48.446;8.834;2023-02-13T10:36:23;17.45;;;8.48;;
72335;SDS011;65062;48.446;8.834;2023-02-13T10:39:27;17.48;;;8.52;;
72335;SDS011;65062;48.446;8.834;2023-02-13T10:42:32;15.55;;;6.47;;
72335;SDS011;65062;48.446;8.834;2023-02-13T10:46:26;18.00;;;8.55;;
72335;SDS011;65062;48.446;8.834;2023-02-13T10:59:13;17.75;;;10.25;;
72335;SDS011;65062;48.446;8.834;2023-02-13T11:02:27;19.63;;;9.35;;
72335;SDS011;65062;48.446;8.834;2023-02-13T11:05:32;17.95;;;8.60;;
72335;SDS011;65062;48.446;8.834;2023-02-13T11:08:43;17.95;;;9.27;;
72335;SDS011;65062;48.446;8.834;2023-02-13T11:11:46;16.55;;;8.98;;
72335;SDS011;65062;48.446;8.834;2023-02-13T11:14:53;17.67;;;9.40;;
72335;SDS011;65062;48.446;8.834;2023-02-13T11:18:02;16.50;;;8.40;;
72335;SDS011;65062;48.446;8.834;2023-02-13T11:21:20;17.17;;;9.00;;
72335;SDS011;65062;48.446;8.834;2023-02-13T11:24:23;18.00;;;9.13;;
72335;SDS011;65062;48.446;8.834;2023-02-13T11:27:26;14.75;;;8.43;;
72335;SDS011;65062;48.446;8.834;2023-02-13T11:30:32;17.25;;;9.48;;
72335;SDS011;65062;48.446;8.834;2023-02-13T11:33:36;18.27;;;9.05;;
72335;SDS011;65062;48.446;8.834;2023-02-13T11:36:37;17.45;;;9.90;;
72335;SDS011;65062;48.446;8.834;2023-02-13T11:39:40;16.75;;;9.35;;
72335;SDS011;65062;48.446;8.834;2023-02-13T11:42:42;16.63;;;9.32;;
72335;SDS011;65062;48.446;8.834;2023-02-13T11:45:45;16.33;;;9.10;;
72335;SDS011;65062;48.446;8.834;2023-02-13T11:49:01;14.93;;;8.80;;
72335;SDS011;65062;48.446;8.834;2023-02-13T11:52:05;15.07;;;8.82;;
72335;SDS011;65062;48.446;8.834;2023-02-13T11:55:43;15.65;;;9.75;;
72335;SDS011;65062;48.446;8.834;2023-02-13T11:58:37;11.23;;;6.50;;
72335;SDS011;65062;48.446;8.834;2023-02-13T12:01:38;14.50;;;8.77;;
72335;SDS011;65062;48.446;8.834;2023-02-13T12:04:39;13.63;;;8.13;;
72335;SDS011;65062;48.446;8.834;2023-02-13T12:07:39;12.15;;;7.65;;
72335;SDS011;65062;48.446;8.834;2023-02-13T12:13:42;8.93;;;5.28;;
72335;SDS011;65062;48.446;8.834;2023-02-13T12:16:45;11.63;;;8.05;;
72335;SDS011;65062;48.446;8.834;2023-02-13T12:19:49;12.18;;;8.05;;
72335;SDS011;65062;48.446;8.834;2023-02-13T12:23:00;11.65;;;7.82;;
72335;SDS011;65062;48.446;8.834;2023-02-13T12:36:31;12.30;;;8.05;;
72335;SDS011;65062;48.446;8.834;2023-02-13T12:40:29;12.30;;;8.80;;
72335;SDS011;65062;48.446;8.834;2023-02-13T12:46:39;10.25;;;8.02;;
72335;SDS011;65062;48.446;8.834;2023-02-13T12:59:07;9.75;;;8.27;;
72335;SDS011;65062;48.446;8.834;2023-02-13T13:02:37;11.07;;;9.52;;
72335;SDS011;65062;48.446;8.834;2023-02-13T13:05:54;10.05;;;8.63;;
72335;SDS011;65062;48.446;8.834;2023-02-13T13:09:28;9.27;;;7.78;;
72335;SDS011;65062;48.446;8.834;2023-02-13T13:12:50;9.70;;;7.82;;
72335;SDS011;65062;48.446;8.834;2023-02-13T13:23:19;9.52;;;7.72;;
72335;SDS011;65062;48.446;8.834;2023-02-13T13:26:29;11.55;;;7.55;;
72335;SDS011;65062;48.446;8.834;2023-02-13T13:29:41;9.45;;;8.45;;
72335;SDS011;65062;48.446;8.834;2023-02-13T13:32:45;8.85;;;7.75;;
72335;SDS011;65062;48.446;8.834;2023-02-13T13:45:41;10.10;;;8.38;;
72335;SDS011;65062;48.446;8.834;2023-02-13T13:49:05;9.95;;;8.35;;
72335;SDS011;65062;48.446;8.834;2023-02-13T13:52:28;9.65;;;8.07;;
72335;SDS011;65062;48.446;8.834;2023-02-13T13:58:57;8.45;;;7.45;;
72335;SDS011;65062;48.446;8.834;2023-02-13T14:08:53;9.43;;;7.85;;
72335;SDS011;65062;48.446;8.834;2023-02-13T14:11:56;8.98;;;7.57;;
72335;SDS011;65062;48.446;8.834;2023-02-13T14:14:58;10.13;;;8.00;;
72335;SDS011;65062;48.446;8.834;2023-02-13T14:21:06;9.80;;;8.25;;
72335;SDS011;65062;48.446;8.834;2023-02-13T14:24:09;9.98;;;8.27;;
72335;SDS011;65062;48.446;8.834;2023-02-13T14:27:18;9.70;;;7.63;;
72335;SDS011;65062;48.446;8.834;2023-02-13T14:30:29;10.57;;;8.63;;
72335;SDS011;65062;48.446;8.834;2023-02-13T14:33:33;11.75;;;8.43;;
72335;SDS011;65062;48.446;8.834;2023-02-13T14:36:34;16.15;;;9.25;;
72335;SDS011;65062;48.446;8.834;2023-02-13T14:39:37;8.70;;;6.53;;
72335;SDS011;65062;48.446;8.834;2023-02-13T14:42:41;10.38;;;7.82;;
72335;SDS011;65062;48.446;8.834;2023-02-13T14:45:52;11.48;;;8.23;;
72335;SDS011;65062;48.446;8.834;2023-02-13T14:49:00;11.52;;;8.20;;
72335;SDS011;65062;48.446;8.834;2023-02-13T14:52:06;13.23;;;9.02;;
72335;SDS011;65062;48.446;8.834;2023-02-13T14:58:32;12.30;;;9.38;;
72335;SDS011;65062;48.446;8.834;2023-02-13T15:01:43;9.25;;;7.40;;
72335;SDS011;65062;48.446;8.834;2023-02-13T15:04:48;12.80;;;8.45;;
72335;SDS011;65062;48.446;8.834;2023-02-13T15:11:34;11.10;;;8.02;;
72335;SDS011;65062;48.446;8.834;2023-02-13T15:14:36;9.52;;;7.03;;
72335;SDS011;65062;48.446;8.834;2023-02-13T15:17:36;10.45;;;7.45;;
72335;SDS011;65062;48.446;8.834;2023-02-13T15:20:39;10.50;;;7.65;;
72335;SDS011;65062;48.446;8.834;2023-02-13T15:23:42;7.95;;;6.53;;
72335;SDS011;65062;48.446;8.834;2023-02-13T15:26:48;9.07;;;6.50;;
72335;SDS011;65062;48.446;8.834;2023-02-13T15:30:32;8.80;;;6.82;;
72335;SDS011;65062;48.446;8.834;2023-02-13T15:33:23;11.93;;;8.48;;
72335;SDS011;65062;48.446;8.834;2023-02-13T15:36:32;12.07;;;8.77;;
72335;SDS011;65062;48.446;8.834;2023-02-13T15:39:38;10.88;;;7.60;;
72335;SDS011;65062;48.446;8.834;2023-02-13T15:42:39;10.52;;;6.97;;
72335;SDS011;65062;48.446;8.834;2023-02-13T15:45:40;11.55;;;7.35;;
72335;SDS011;65062;48.446;8.834;2023-02-13T15:48:42;11.57;;;7.18;;
72335;SDS011;65062;48.446;8.834;2023-02-13T15:51:44;12.15;;;7.07;;
72335;SDS011;65062;48.446;8.834;2023-02-13T15:57:51;12.70;;;6.78;;
72335;SDS011;65062;48.446;8.834;2023-02-13T16:00:55;15.43;;;6.97;;
72335;SDS011;65062;48.446;8.834;2023-02-13T16:04:01;12.52;;;7.95;;
72335;SDS011;65062;48.446;8.834;2023-02-13T16:07:05;13.43;;;8.80;;
72335;SDS011;65062;48.446;8.834;2023-02-13T16:10:22;15.85;;;8.43;;
72335;SDS011;65062;48.446;8.834;2023-02-13T16:13:25;11.15;;;6.90;;
72335;SDS011;65062;48.446;8.834;2023-02-13T16:16:26;11.90;;;7.13;;
72335;SDS011;65062;48.446;8.834;2023-02-13T16:22:48;14.10;;;8.18;;
72335;SDS011;65062;48.446;8.834;2023-02-13T16:25:51;14.70;;;8.88;;
72335;SDS011;65062;48.446;8.834;2023-02-13T16:28:59;15.45;;;9.18;;
72335;SDS011;65062;48.446;8.834;2023-02-13T16:32:03;13.70;;;7.82;;
72335;SDS011;65062;48.446;8.834;2023-02-13T16:35:28;14.85;;;7.32;;
72335;SDS011;65062;48.446;8.834;2023-02-13T16:38:40;13.23;;;7.95;;
72335;SDS011;65062;48.446;8.834;2023-02-13T16:41:48;13.05;;;7.93;;
72335;SDS011;65062;48.446;8.834;2023-02-13T16:44:49;17.08;;;10.05;;
72335;SDS011;65062;48.446;8.834;2023-02-13T16:47:57;17.42;;;10.23;;
72335;SDS011;65062;48.446;8.834;2023-02-13T16:51:01;17.80;;;10.73;;
72335;SDS011;65062;48.446;8.834;2023-02-13T16:54:04;15.93;;;8.52;;
72335;SDS011;65062;48.446;8.834;2023-02-13T17:00:16;20.63;;;13.10;;
72335;SDS011;65062;48.446;8.834;2023-02-13T17:03:21;22.02;;;12.23;;
72335;SDS011;65062;48.446;8.834;2023-02-13T17:06:23;21.15;;;12.85;;
72335;SDS011;65062;48.446;8.834;2023-02-13T17:09:23;18.35;;;11.70;;
72335;SDS011;65062;48.446;8.834;2023-02-13T17:12:24;18.15;;;12.10;;
72335;SDS011;65062;48.446;8.834;2023-02-13T17:15:27;16.33;;;10.35;;
72335;SDS011;65062;48.446;8.834;2023-02-13T17:18:29;15.30;;;9.52;;
72335;SDS011;65062;48.446;8.834;2023-02-13T17:21:29;16.95;;;10.30;;
72335;SDS011;65062;48.446;8.834;2023-02-13T17:24:30;15.95;;;9.32;;
72335;SDS011;65062;48.446;8.834;2023-02-13T17:27:31;17.48;;;10.25;;
72335;SDS011;65062;48.446;8.834;2023-02-13T17:30:31;14.60;;;8.68;;
72335;SDS011;65062;48.446;8.834;2023-02-13T17:33:32;16.27;;;8.63;;
72335;SDS011;65062;48.446;8.834;2023-02-13T17:36:34;15.38;;;8.98;;
72335;SDS011;65062;48.446;8.834;2023-02-13T17:39:34;17.92;;;9.60;;
72335;SDS011;65062;48.446;8.834;2023-02-13T17:42:35;19.15;;;9.63;;
72335;SDS011;65062;48.446;8.834;2023-02-13T17:45:36;21.58;;;10.18;;
72335;SDS011;65062;48.446;8.834;2023-02-13T17:48:37;17.88;;;8.90;;
72335;SDS011;65062;48.446;8.834;2023-02-13T17:51:38;15.40;;;9.27;;
72335;SDS011;65062;48.446;8.834;2023-02-13T17:54:39;21.85;;;10.68;;
72335;SDS011;65062;48.446;8.834;2023-02-13T17:57:39;19.90;;;10.00;;
72335;SDS011;65062;48.446;8.834;2023-02-13T18:00:39;14.73;;;9.00;;
72335;SDS011;65062;48.446;8.834;2023-02-13T18:03:40;21.52;;;10.18;;
72335;SDS011;65062;48.446;8.834;2023-02-13T18:06:40;18.90;;;9.85;;
72335;SDS011;65062;48.446;8.834;2023-02-13T18:09:40;17.85;;;9.90;;
72335;SDS011;65062;48.446;8.834;2023-02-13T18:12:41;18.00;;;10.27;;
72335;SDS011;65062;48.446;8.834;2023-02-13T18:15:43;19.58;;;11.25;;
72335;SDS011;65062;48.446;8.834;2023-02-13T18:18:43;31.95;;;15.63;;
72335;SDS011;65062;48.446;8.834;2023-02-13T18:21:44;30.27;;;15.02;;
72335;SDS011;65062;48.446;8.834;2023-02-13T18:24:44;35.50;;;15.18;;
72335;SDS011;65062;48.446;8.834;2023-02-13T18:27:45;30.55;;;15.25;;
72335;SDS011;65062;48.446;8.834;2023-02-13T18:30:45;26.77;;;14.15;;
72335;SDS011;65062;48.446;8.834;2023-02-13T18:33:46;29.77;;;15.02;;
72335;SDS011;65062;48.446;8.834;2023-02-13T18:36:46;30.13;;;15.32;;
72335;SDS011;65062;48.446;8.834;2023-02-13T18:39:47;30.67;;;15.27;;
72335;SDS011;65062;48.446;8.834;2023-02-13T18:42:47;30.88;;;15.32;;
72335;SDS011;65062;48.446;8.834;2023-02-13T18:45:49;28.05;;;14.73;;
72335;SDS011;65062;48.446;8.834;2023-02-13T18:48:49;30.45;;;15.57;;
72335;SDS011;65062;48.446;8.834;2023-02-13T18:51:49;23.80;;;12.95;;
72335;SDS011;65062;48.446;8.834;2023-02-13T18:54:50;25.77;;;14.55;;
72335;SDS011;65062;48.446;8.834;2023-02-13T18:57:51;29.38;;;15.60;;
72335;SDS011;65062;48.446;8.834;2023-02-13T19:00:51;25.70;;;12.95;;
72335;SDS011;65062;48.446;8.834;2023-02-13T19:03:52;26.58;;;13.63;;
72335;SDS011;65062;48.446;8.834;2023-02-13T19:06:53;23.67;;;11.98;;
72335;SDS011;65062;48.446;8.834;2023-02-13T19:09:53;28.83;;;14.35;;
72335;SDS011;65062;48.446;8.834;2023-02-13T19:12:54;26.38;;;13.55;;
72335;SDS011;65062;48.446;8.834;2023-02-13T19:15:54;28.85;;;15.18;;
72335;SDS011;65062;48.446;8.834;2023-02-13T19:18:55;26.38;;;13.25;;
72335;SDS011;65062;48.446;8.834;2023-02-13T19:21:58;24.63;;;11.38;;
72335;SDS011;65062;48.446;8.834;2023-02-13T19:24:58;24.35;;;13.00;;
72335;SDS011;65062;48.446;8.834;2023-02-13T19:27:58;22.55;;;12.95;;
72335;SDS011;65062;48.446;8.834;2023-02-13T19:31:09;25.70;;;13.15;;
72335;SDS011;65062;48.446;8.834;2023-02-13T19:34:30;24.80;;;12.65;;
72335;SDS011;65062;48.446;8.834;2023-02-13T19:37:30;24.63;;;12.13;;
72335;SDS011;65062;48.446;8.834;2023-02-13T19:40:31;25.05;;;12.40;;
72335;SDS011;65062;48.446;8.834;2023-02-13T19:43:33;24.77;;;11.25;;
72335;SDS011;65062;48.446;8.834;2023-02-13T19:46:34;25.38;;;11.70;;
72335;SDS011;65062;48.446;8.834;2023-02-13T19:49:36;30.13;;;13.27;;
72335;SDS011;65062;48.446;8.834;2023-02-13T19:52:36;33.22;;;14.60;;
72335;SDS011;65062;48.446;8.834;2023-02-13T19:55:36;27.30;;;12.25;;
72335;SDS011;65062;48.446;8.834;2023-02-13T19:58:37;24.25;;;12.15;;
72335;SDS011;65062;48.446;8.834;2023-02-13T20:01:38;33.55;;;13.98;;
72335;SDS011;65062;48.446;8.834;2023-02-13T20:04:41;28.85;;;13.45;;
72335;SDS011;65062;48.446;8.834;2023-02-13T20:07:42;29.25;;;13.48;;
72335;SDS011;65062;48.446;8.834;2023-02-13T20:10:43;21.60;;;11.25;;
72335;SDS011;65062;48.446;8.834;2023-02-13T20:13:44;23.08;;;11.68;;
72335;SDS011;65062;48.446;8.834;2023-02-13T20:16:44;18.73;;;9.02;;
72335;SDS011;65062;48.446;8.834;2023-02-13T20:19:45;18.02;;;8.50;;
72335;SDS011;65062;48.446;8.834;2023-02-13T20:22:46;15.32;;;7.72;;
72335;SDS011;65062;48.446;8.834;2023-02-13T20:25:47;22.80;;;10.93;;
72335;SDS011;65062;48.446;8.834;2023-02-13T20:28:48;21.33;;;9.88;;
72335;SDS011;65062;48.446;8.834;2023-02-13T20:31:49;21.48;;;10.18;;
72335;SDS011;65062;48.446;8.834;2023-02-13T20:34:51;20.52;;;9.60;;
72335;SDS011;65062;48.446;8.834;2023-02-13T20:37:51;20.23;;;9.20;;
72335;SDS011;65062;48.446;8.834;2023-02-13T20:40:51;26.42;;;10.63;;
72335;SDS011;65062;48.446;8.834;2023-02-13T20:43:52;18.85;;;8.80;;
72335;SDS011;65062;48.446;8.834;2023-02-13T20:50:00;17.83;;;8.03;;